createdAt,value
2024-03-02T00:01:46.151Z,56.11
2024-03-02T00:04:13.812Z,56.54
2024-03-02T00:06:41.580Z,57.11
2024-03-02T00:09:10.572Z,56.52
2024-03-02T00:11:38.288Z,57.17
2024-03-02T00:14:05.916Z,57.21
2024-03-02T00:16:34.889Z,56.31
2024-03-02T00:19:08.144Z,56.19
2024-03-02T00:21:36.201Z,56.73
2024-03-02T00:24:19.644Z,56.50
2024-03-02T00:26:47.361Z,56.44
2024-03-02T00:29:20.236Z,55.78
2024-03-02T00:31:49.610Z,56.52
2024-03-02T00:34:19.771Z,56.43
2024-03-02T00:36:47.901Z,55.72
2024-03-02T00:39:18.194Z,55.29
2024-03-02T00:41:45.935Z,55.99
2024-03-02T00:44:15.168Z,55.51
2024-03-02T00:46:44.768Z,55.66
2024-03-02T00:49:20.699Z,55.98
2024-03-02T00:51:50.930Z,55.70
2024-03-02T00:54:22.411Z,56.26
2024-03-02T00:56:50.505Z,56.64
2024-03-02T00:59:18.159Z,56.03
2024-03-02T01:01:46.108Z,57.05
2024-03-02T01:04:15.183Z,57.20
2024-03-02T01:06:43.310Z,56.90
2024-03-02T01:09:13.437Z,56.28
2024-03-02T01:11:41.128Z,57.00
2024-03-02T01:14:08.865Z,56.07
2024-03-02T01:16:36.482Z,56.39
2024-03-02T01:19:05.248Z,55.68
2024-03-02T01:21:33.077Z,55.97
2024-03-02T01:24:00.765Z,56.08
2024-03-02T01:26:29.671Z,55.83
2024-03-02T01:28:57.344Z,55.87
2024-03-02T01:31:24.969Z,55.76
2024-03-02T01:33:52.593Z,56.33
2024-03-02T01:36:20.319Z,55.36
2024-03-02T01:38:47.893Z,56.56
2024-03-02T01:41:15.585Z,56.94
2024-03-02T01:43:44.601Z,56.21
2024-03-02T01:46:12.474Z,56.45
2024-03-02T01:48:40.133Z,56.19
2024-03-02T01:51:08.998Z,56.35
2024-03-02T01:53:36.707Z,57.13
2024-03-02T01:56:04.858Z,57.27
2024-03-02T01:58:32.796Z,57.26
2024-03-02T02:01:02.586Z,56.92
2024-03-02T02:03:30.413Z,56.03
2024-03-02T02:05:58.200Z,55.41
2024-03-02T02:08:25.813Z,55.89
2024-03-02T02:10:53.427Z,56.38
2024-03-02T02:13:21.072Z,56.04
2024-03-02T02:15:48.784Z,55.92
2024-03-02T02:18:17.817Z,56.00
2024-03-02T02:20:45.430Z,56.65
2024-03-02T02:23:14.692Z,56.39
2024-03-02T02:25:42.358Z,56.16
2024-03-02T02:28:10.142Z,56.35
2024-03-02T02:30:37.767Z,56.15
2024-03-02T02:33:05.855Z,55.77
2024-03-02T02:35:33.515Z,56.10
2024-03-02T02:38:01.904Z,55.28
2024-03-02T02:40:31.724Z,55.25
2024-03-02T02:43:00.181Z,55.78
2024-03-02T02:45:28.068Z,55.07
2024-03-02T02:47:56.145Z,54.79
2024-03-02T02:50:23.747Z,55.73
2024-03-02T02:52:51.537Z,55.48
2024-03-02T02:55:19.122Z,55.27
2024-03-02T02:57:48.659Z,55.66
2024-03-02T03:00:19.753Z,56.24
2024-03-02T03:02:50.697Z,56.25
2024-03-02T03:05:19.390Z,56.45
2024-03-02T03:07:47.359Z,55.98
2024-03-02T03:10:15.741Z,56.75
2024-03-02T03:12:45.062Z,56.03
2024-03-02T03:15:15.192Z,56.73
2024-03-02T03:17:43.004Z,56.18
2024-03-02T03:20:11.691Z,56.09
2024-03-02T03:22:39.425Z,56.30
2024-03-02T03:25:09.278Z,55.66
2024-03-02T03:27:37.353Z,55.46
2024-03-02T03:30:07.189Z,55.21
2024-03-02T03:32:36.386Z,55.46
2024-03-02T03:35:04.452Z,55.41
2024-03-02T03:37:34.323Z,55.61
2024-03-02T03:40:03.251Z,56.14
2024-03-02T03:42:30.897Z,56.68
2024-03-02T03:44:58.558Z,56.24
2024-03-02T03:47:26.221Z,56.48
2024-03-02T03:49:55.237Z,56.51
2024-03-02T03:52:23.096Z,56.75
2024-03-02T03:54:50.715Z,56.30
2024-03-02T03:57:18.998Z,56.23
2024-03-02T03:59:47.315Z,56.18
2024-03-02T04:02:15.017Z,55.72
2024-03-02T04:04:42.605Z,56.00
2024-03-02T04:07:11.648Z,54.89
2024-03-02T04:09:39.540Z,55.34
2024-03-02T04:12:07.397Z,55.69
2024-03-02T04:14:35.122Z,56.19
2024-03-02T04:17:02.793Z,56.20
2024-03-02T04:19:30.420Z,56.19
2024-03-02T04:22:00.019Z,56.11
2024-03-02T04:24:31.138Z,55.91
2024-03-02T04:26:58.766Z,56.09
2024-03-02T04:29:26.304Z,55.98
2024-03-02T04:31:53.918Z,55.76
2024-03-02T04:34:21.560Z,55.91
2024-03-02T04:36:49.557Z,56.44
2024-03-02T04:39:17.552Z,56.46
2024-03-02T04:41:46.795Z,56.68
2024-03-02T04:44:14.680Z,55.87
2024-03-02T04:46:42.274Z,56.61
2024-03-02T04:49:10.125Z,56.79
2024-03-02T04:51:37.854Z,57.04
2024-03-02T04:54:05.611Z,55.83
2024-03-02T04:56:45.547Z,56.25
2024-03-02T04:59:14.655Z,56.36
2024-03-02T05:01:42.309Z,56.41
2024-03-02T05:04:11.687Z,56.06
2024-03-02T05:06:40.669Z,55.83
2024-03-02T05:09:08.493Z,55.74
2024-03-02T05:12:04.024Z,55.79
2024-03-02T05:14:33.095Z,55.51
2024-03-02T05:17:00.672Z,56.62
2024-03-02T05:19:28.295Z,56.34
2024-03-02T05:21:55.978Z,55.81
2024-03-02T05:24:23.622Z,55.27
2024-03-02T05:26:51.223Z,55.45
2024-03-02T05:29:18.889Z,55.87
2024-03-02T05:31:47.851Z,55.68
2024-03-02T05:34:15.519Z,56.44
2024-03-02T05:36:43.566Z,56.26
2024-03-02T05:39:11.483Z,56.11
2024-03-02T05:41:39.618Z,56.25
2024-03-02T05:44:07.273Z,56.49
2024-03-02T05:46:34.890Z,56.14
2024-03-02T05:49:04.774Z,55.99
2024-03-02T05:51:32.372Z,56.57
2024-03-02T05:54:00.029Z,56.82
2024-03-02T05:56:27.708Z,56.48
2024-03-02T05:59:08.199Z,56.54
2024-03-02T06:01:35.924Z,55.80
2024-03-02T06:04:05.220Z,55.39
2024-03-02T06:06:33.581Z,55.48
2024-03-02T06:09:01.557Z,55.87
2024-03-02T06:11:29.161Z,55.48
2024-03-02T06:13:56.803Z,55.74
2024-03-02T06:16:24.484Z,56.19
2024-03-02T06:18:52.453Z,56.85
2024-03-02T06:21:21.579Z,56.84
2024-03-02T06:23:49.198Z,56.65
2024-03-02T06:26:16.900Z,56.99
2024-03-02T06:28:44.946Z,56.62
2024-03-02T06:31:12.691Z,56.51
2024-03-02T06:33:40.195Z,56.75
2024-03-02T06:36:09.554Z,56.47
2024-03-02T06:38:41.113Z,57.20
2024-03-02T06:41:09.917Z,57.00
2024-03-02T06:43:37.667Z,57.48
2024-03-02T06:46:06.035Z,57.27
2024-03-02T06:48:33.750Z,57.14
2024-03-02T06:51:02.438Z,57.26
2024-03-02T06:53:31.119Z,57.58
2024-03-02T06:56:00.077Z,57.68
2024-03-02T06:58:28.153Z,57.38
2024-03-02T07:00:55.775Z,58.14
2024-03-02T07:03:23.787Z,57.47
2024-03-02T07:05:52.293Z,58.03
2024-03-02T07:08:19.870Z,58.48
2024-03-02T07:10:48.485Z,58.09
2024-03-02T07:13:17.471Z,58.54
2024-03-02T07:16:12.221Z,58.22
2024-03-02T07:18:42.689Z,58.17
2024-03-02T07:21:10.440Z,57.28
2024-03-02T07:23:38.152Z,58.10
2024-03-02T07:28:39.285Z,57.58
2024-03-02T07:31:07.190Z,57.49
2024-03-02T07:33:35.092Z,58.16
2024-03-02T07:36:04.969Z,58.31
2024-03-02T07:38:35.050Z,58.43
2024-03-02T07:41:03.673Z,58.10
2024-03-02T07:43:31.818Z,59.03
2024-03-02T07:46:00.836Z,59.10
2024-03-02T07:48:28.760Z,58.48
2024-03-02T07:50:56.359Z,57.96
2024-03-02T07:53:23.971Z,58.81
2024-03-02T07:55:51.559Z,59.07
2024-03-02T07:58:20.496Z,59.49
2024-03-02T08:00:49.400Z,58.24
2024-03-02T08:03:19.270Z,59.27
2024-03-02T08:05:47.114Z,58.84
2024-03-02T08:08:14.698Z,58.75
2024-03-02T08:10:42.257Z,58.33
2024-03-02T08:13:09.820Z,58.85
2024-03-02T08:15:37.556Z,58.06
2024-03-02T08:18:06.093Z,58.01
2024-03-02T08:20:35.051Z,58.10
2024-03-02T08:23:02.733Z,57.49
2024-03-02T08:25:30.371Z,58.24
2024-03-02T08:27:58.680Z,57.96
2024-03-02T08:30:26.412Z,58.28
2024-03-02T08:32:54.021Z,58.17
2024-03-02T08:35:23.428Z,57.55
2024-03-02T08:37:52.459Z,57.30
2024-03-02T08:40:20.388Z,57.42
2024-03-02T08:42:49.104Z,57.40
2024-03-02T08:45:17.717Z,58.83
2024-03-02T08:47:45.415Z,58.49
2024-03-02T08:50:13.077Z,58.62
2024-03-02T08:52:41.337Z,57.99
2024-03-02T08:55:12.253Z,57.59
2024-03-02T08:57:40.295Z,57.21
2024-03-02T09:00:09.313Z,57.81
2024-03-02T09:02:37.343Z,58.60
2024-03-02T09:05:06.325Z,58.08
2024-03-02T09:07:33.906Z,58.71
2024-03-02T09:10:01.557Z,58.42
2024-03-02T09:12:30.555Z,58.06
2024-03-02T09:14:58.500Z,57.06
2024-03-02T09:17:26.141Z,58.01
2024-03-02T09:19:54.288Z,58.34
2024-03-02T09:22:22.448Z,58.36
2024-03-02T09:24:50.054Z,58.39
2024-03-02T09:27:17.671Z,57.20
2024-03-02T09:29:46.572Z,57.85
2024-03-02T09:32:15.625Z,57.11
2024-03-02T09:34:44.329Z,57.02
2024-03-02T09:37:12.147Z,57.77
2024-03-02T09:39:39.787Z,56.94
2024-03-02T09:42:08.177Z,56.88
2024-03-02T09:44:35.902Z,56.20
2024-03-02T09:47:05.272Z,55.50
2024-03-02T09:49:33.126Z,54.99
2024-03-02T09:52:01.137Z,55.07
2024-03-02T09:54:29.812Z,54.29
2024-03-02T09:56:57.658Z,52.92
2024-03-02T09:59:25.336Z,53.56
2024-03-02T10:02:00.439Z,54.17
2024-03-02T10:04:30.752Z,54.15
2024-03-02T10:07:13.072Z,54.42
2024-03-02T10:09:41.064Z,54.15
2024-03-02T10:12:11.197Z,52.72
2024-03-02T10:14:39.077Z,50.92
2024-03-02T10:17:08.413Z,49.46
2024-03-02T10:19:38.259Z,48.22
2024-03-02T10:22:07.232Z,46.99
2024-03-02T10:24:39.922Z,46.78
2024-03-02T10:27:12.337Z,45.89
2024-03-02T10:29:41.622Z,45.42
2024-03-02T10:32:12.159Z,43.29
2024-03-02T10:34:42.326Z,43.80
2024-03-02T10:37:10.603Z,43.56
2024-03-02T10:39:40.829Z,42.37
2024-03-02T10:42:10.139Z,41.56
2024-03-02T10:44:37.757Z,41.19
2024-03-02T10:47:06.676Z,40.02
2024-03-02T10:49:35.145Z,38.61
2024-03-02T10:52:05.087Z,38.85
2024-03-02T10:54:37.981Z,36.94
2024-03-02T10:57:10.529Z,37.47
2024-03-02T10:59:40.830Z,35.26
2024-03-02T11:02:11.024Z,34.52
2024-03-02T11:04:40.151Z,34.02
2024-03-02T11:07:12.006Z,30.92
2024-03-02T11:09:44.214Z,29.57
2024-03-02T11:12:15.449Z,28.44
2024-03-02T11:14:45.172Z,29.24
2024-03-02T11:17:16.744Z,28.86
2024-03-02T11:19:46.334Z,29.03
2024-03-02T11:22:16.819Z,27.64
2024-03-02T11:24:52.325Z,27.56
2024-03-02T11:27:54.003Z,26.44
2024-03-02T11:34:31.717Z,24.89
2024-03-02T11:37:00.163Z,24.16
2024-03-02T11:39:30.451Z,24.28
2024-03-02T11:42:00.248Z,23.79
2024-03-02T11:44:28.658Z,22.64
2024-03-02T11:47:00.649Z,23.04
2024-03-02T11:49:39.756Z,22.86
2024-03-02T11:52:09.136Z,23.44
2024-03-02T11:54:40.572Z,22.62
2024-03-02T11:57:09.780Z,21.46
2024-03-02T11:59:37.414Z,21.38
2024-03-02T12:02:05.353Z,21.85
2024-03-02T12:04:33.116Z,20.15
2024-03-02T12:07:02.415Z,21.38
2024-03-02T12:09:31.149Z,20.80
2024-03-02T12:12:10.580Z,21.26
2024-03-02T12:14:40.096Z,20.18
2024-03-02T12:17:08.066Z,20.44
2024-03-02T12:19:35.924Z,20.51
2024-03-02T12:22:04.158Z,20.50
2024-03-02T12:24:32.214Z,20.19
2024-03-02T12:27:00.541Z,19.79
2024-03-02T12:29:29.670Z,20.42
2024-03-02T12:31:57.434Z,21.98
2024-03-02T12:34:25.734Z,22.54
2024-03-02T12:36:54.387Z,21.63
2024-03-02T12:39:24.036Z,20.95
2024-03-02T12:41:52.622Z,20.38
2024-03-02T12:44:20.367Z,20.05
2024-03-02T12:46:49.366Z,19.96
2024-03-02T12:49:17.929Z,19.37
2024-03-02T12:51:48.146Z,19.84
2024-03-02T12:54:16.539Z,19.58
2024-03-02T12:56:46.471Z,19.63
2024-03-02T12:59:20.243Z,19.38
2024-03-02T13:01:53.929Z,19.65
2024-03-02T13:04:24.752Z,20.20
2024-03-02T13:06:53.581Z,20.10
2024-03-02T13:09:21.619Z,19.80
2024-03-02T13:11:49.426Z,21.20
2024-03-02T13:14:17.336Z,20.39
2024-03-02T13:16:49.212Z,20.59
2024-03-02T13:19:20.095Z,19.87
2024-03-02T13:21:47.925Z,19.00
2024-03-02T13:24:15.599Z,18.41
2024-03-02T13:26:43.292Z,18.03
2024-03-02T13:29:11.007Z,18.87
2024-03-02T13:31:38.665Z,17.95
2024-03-02T13:34:06.380Z,18.30
2024-03-02T13:36:35.411Z,17.83
2024-03-02T13:39:03.927Z,18.57
2024-03-02T13:41:31.715Z,17.29
2024-03-02T13:44:02.146Z,16.94
2024-03-02T13:46:29.811Z,17.34
2024-03-02T13:48:57.795Z,17.18
2024-03-02T13:51:26.546Z,16.65
2024-03-02T13:53:55.565Z,17.56
2024-03-02T13:56:23.458Z,16.88
2024-03-02T13:58:51.122Z,16.53
2024-03-02T14:01:18.828Z,16.32
2024-03-02T14:03:47.577Z,16.62
2024-03-02T14:06:15.420Z,16.39
2024-03-02T14:08:45.843Z,16.57
2024-03-02T14:11:16.554Z,16.59
2024-03-02T14:13:45.436Z,17.01
2024-03-02T14:16:13.176Z,16.68
2024-03-02T14:18:40.872Z,16.64
2024-03-02T14:21:09.751Z,16.88
2024-03-02T14:23:37.348Z,17.34
2024-03-02T14:26:05.482Z,17.06
2024-03-02T14:28:48.138Z,16.74
2024-03-02T14:31:18.810Z,16.45
2024-03-02T14:33:46.759Z,16.62
2024-03-02T14:36:14.807Z,16.45
2024-03-02T14:38:42.609Z,17.56
2024-03-02T14:41:10.307Z,17.18
2024-03-02T14:43:39.361Z,17.28
2024-03-02T14:46:09.417Z,17.06
2024-03-02T14:48:37.319Z,17.02
2024-03-02T14:51:06.206Z,17.00
2024-03-02T14:53:33.814Z,17.12
2024-03-02T14:56:01.435Z,17.79
2024-03-02T14:58:29.073Z,18.40
2024-03-02T15:00:58.386Z,17.90
2024-03-02T15:03:26.093Z,18.60
2024-03-02T15:05:54.795Z,18.90
2024-03-02T15:08:22.566Z,19.12
2024-03-02T15:10:50.258Z,18.60
2024-03-02T15:13:18.439Z,18.96
2024-03-02T15:15:46.244Z,19.61
2024-03-02T15:18:15.335Z,19.92
2024-03-02T15:20:43.028Z,20.32
2024-03-02T15:23:10.643Z,20.61
2024-03-02T15:25:38.296Z,21.28
2024-03-02T15:28:06.786Z,21.43
2024-03-02T15:30:34.554Z,21.81
2024-03-02T15:33:02.242Z,22.02
2024-03-02T15:35:31.302Z,22.10
2024-03-02T15:37:58.983Z,22.43
2024-03-02T15:40:27.184Z,22.27
2024-03-02T15:42:54.871Z,22.40
2024-03-02T15:45:22.574Z,23.17
2024-03-02T15:47:50.308Z,23.54
2024-03-02T15:50:18.450Z,23.60
2024-03-02T15:52:47.994Z,24.30
2024-03-02T15:55:16.781Z,24.30
2024-03-02T15:57:44.498Z,24.58
2024-03-02T16:00:13.030Z,25.32
2024-03-02T16:02:40.648Z,26.83
2024-03-02T16:05:08.807Z,27.51
2024-03-02T16:07:36.507Z,27.84
2024-03-02T16:10:08.691Z,29.05
2024-03-02T16:12:36.541Z,29.12
2024-03-02T16:15:05.883Z,29.78
2024-03-02T16:17:33.493Z,30.61
2024-03-02T16:20:01.127Z,30.48
2024-03-02T16:22:28.750Z,30.45
2024-03-02T16:24:56.358Z,30.30
2024-03-02T16:27:25.701Z,30.69
2024-03-02T16:29:55.842Z,30.37
2024-03-02T16:32:23.553Z,30.69
2024-03-02T16:34:52.862Z,30.91
2024-03-02T16:37:21.378Z,30.67
2024-03-02T16:39:49.674Z,30.97
2024-03-02T16:42:17.409Z,31.80
2024-03-02T16:44:48.633Z,31.77
2024-03-02T16:47:16.470Z,31.93
2024-03-02T16:49:46.164Z,32.24
2024-03-02T16:52:15.445Z,32.55
2024-03-02T16:54:43.135Z,33.75
2024-03-02T16:57:11.469Z,33.94
2024-03-02T16:59:39.077Z,34.20
2024-03-02T17:02:08.054Z,34.41
2024-03-02T17:04:35.659Z,35.15
2024-03-02T17:07:03.340Z,34.80
2024-03-02T17:09:31.102Z,35.96
2024-03-02T17:11:58.755Z,36.06
2024-03-02T17:14:27.090Z,36.03
2024-03-02T17:16:54.695Z,36.38
2024-03-02T17:19:23.693Z,36.48
2024-03-02T17:21:51.317Z,36.86
2024-03-02T17:24:18.928Z,36.47
2024-03-02T17:26:46.528Z,36.88
2024-03-02T17:29:14.138Z,37.68
2024-03-02T17:31:41.794Z,37.74
2024-03-02T17:34:09.426Z,38.14
2024-03-02T17:36:38.464Z,37.92
2024-03-02T17:39:06.165Z,38.05
2024-03-02T17:41:34.194Z,38.14
2024-03-02T17:44:01.791Z,38.18
2024-03-02T17:46:29.504Z,38.47
2024-03-02T17:48:57.133Z,38.01
2024-03-02T17:51:25.498Z,38.25
2024-03-02T17:53:54.474Z,38.75
2024-03-02T17:56:22.097Z,39.25
2024-03-02T17:58:50.030Z,39.51
2024-03-02T18:01:18.198Z,39.84
2024-03-02T18:03:45.917Z,39.79
2024-03-02T18:06:15.377Z,39.96
2024-03-02T18:08:43.146Z,40.42
2024-03-02T18:11:12.282Z,40.25
2024-03-02T18:13:39.947Z,39.93
2024-03-02T18:16:07.988Z,39.96
2024-03-02T18:18:35.767Z,39.80
2024-03-02T18:21:05.787Z,39.84
2024-03-02T18:23:33.431Z,40.10
2024-03-02T18:26:01.032Z,40.34
2024-03-02T18:28:30.003Z,40.11
2024-03-02T18:30:59.451Z,40.62
2024-03-02T18:33:27.242Z,41.13
2024-03-02T18:35:56.415Z,40.98
2024-03-02T18:38:24.642Z,41.47
2024-03-02T18:40:52.293Z,41.50
2024-03-02T18:43:20.233Z,41.52
2024-03-02T18:45:49.288Z,41.72
2024-03-02T18:48:17.008Z,42.33
2024-03-02T18:50:44.671Z,41.84
2024-03-02T18:53:13.906Z,42.39
2024-03-02T18:55:41.693Z,42.46
2024-03-02T18:58:09.406Z,42.16
2024-03-02T19:00:37.171Z,43.37
2024-03-02T19:03:08.688Z,43.28
2024-03-02T19:05:38.867Z,44.11
2024-03-02T19:08:07.342Z,43.73
2024-03-02T19:10:34.912Z,43.97
2024-03-02T19:13:02.534Z,44.08
2024-03-02T19:15:30.148Z,44.65
2024-03-02T19:17:57.847Z,45.10
2024-03-02T19:20:26.818Z,45.53
2024-03-02T19:22:55.480Z,46.69
2024-03-02T19:25:23.269Z,48.43
2024-03-02T19:27:50.863Z,49.21
2024-03-02T19:30:18.511Z,49.75
2024-03-02T19:32:46.237Z,50.26
2024-03-02T19:35:14.173Z,50.46
2024-03-02T19:37:43.195Z,51.74
2024-03-02T19:40:12.054Z,50.11
2024-03-02T19:42:39.725Z,49.62
2024-03-02T19:45:08.191Z,48.91
2024-03-02T19:47:36.218Z,47.32
2024-03-02T19:50:05.331Z,47.21
2024-03-02T19:52:33.266Z,47.47
2024-03-02T19:55:02.858Z,47.08
2024-03-02T19:57:30.860Z,46.88
2024-03-02T19:59:58.560Z,47.76
2024-03-02T20:02:28.000Z,47.96
2024-03-02T20:04:55.696Z,48.47
2024-03-02T20:07:23.273Z,48.74
2024-03-02T20:09:51.636Z,48.09
2024-03-02T20:12:20.630Z,48.08
2024-03-02T20:14:48.243Z,47.75
2024-03-02T20:17:16.802Z,47.71
2024-03-02T20:19:44.364Z,47.59
2024-03-02T20:22:12.220Z,47.21
2024-03-02T20:24:39.896Z,47.19
2024-03-02T20:27:08.109Z,47.57
2024-03-02T20:29:37.063Z,47.31
2024-03-02T20:32:04.885Z,49.72
2024-03-02T20:34:32.495Z,49.99
2024-03-02T20:37:01.682Z,50.54
2024-03-02T20:39:29.322Z,49.63
2024-03-02T20:41:56.898Z,50.02
2024-03-02T20:44:27.003Z,51.40
2024-03-02T20:46:56.162Z,50.81
2024-03-02T20:49:24.752Z,50.89
2024-03-02T20:51:52.577Z,49.56
2024-03-02T20:54:20.174Z,48.65
2024-03-02T20:56:47.781Z,49.59
2024-03-02T20:59:15.409Z,49.85
2024-03-02T21:01:44.513Z,49.17
2024-03-02T21:04:15.747Z,49.29
2024-03-02T21:06:44.749Z,48.77
2024-03-02T21:09:12.381Z,49.10
2024-03-02T21:11:40.041Z,48.87
2024-03-02T21:14:07.648Z,48.72
2024-03-02T21:16:35.242Z,50.53
2024-03-02T21:19:02.827Z,50.31
2024-03-02T21:21:31.826Z,51.18
2024-03-02T21:23:58.497Z,50.64
2024-03-02T21:26:26.595Z,50.29
2024-03-02T21:28:54.153Z,49.93
2024-03-02T21:31:21.825Z,50.77
2024-03-02T21:33:49.492Z,50.26
2024-03-02T21:36:17.069Z,49.95
2024-03-02T21:38:45.999Z,49.74
2024-03-02T21:41:13.578Z,50.02
2024-03-02T21:43:42.849Z,50.58
2024-03-02T21:46:12.584Z,50.69
2024-03-02T21:48:40.782Z,51.02
2024-03-02T21:51:08.528Z,51.27
2024-03-02T21:53:37.918Z,51.33
2024-03-02T21:56:08.759Z,50.91
2024-03-02T21:58:36.514Z,50.45
2024-03-02T22:01:04.273Z,49.70
2024-03-02T22:03:32.755Z,49.59
2024-03-02T22:06:00.496Z,49.85
2024-03-02T22:08:28.654Z,50.69
2024-03-02T22:10:56.551Z,50.53
2024-03-02T22:13:25.521Z,51.12
2024-03-02T22:15:53.148Z,51.22
2024-03-02T22:18:20.748Z,51.93
2024-03-02T22:20:48.812Z,51.99
2024-03-02T22:23:16.746Z,52.23
2024-03-02T22:25:44.384Z,52.73
2024-03-02T22:28:12.014Z,51.79
2024-03-02T22:30:40.973Z,52.80
2024-03-02T22:33:08.627Z,54.17
2024-03-02T22:35:36.277Z,53.92
2024-03-02T22:38:04.007Z,53.93
2024-03-02T22:40:31.968Z,54.62
2024-03-02T22:43:00.248Z,54.19
2024-03-02T22:45:27.873Z,53.72
2024-03-02T22:47:56.832Z,53.26
2024-03-02T22:50:25.057Z,52.82
2024-03-02T22:52:52.925Z,52.93
2024-03-02T22:55:20.829Z,53.45
2024-03-02T22:57:48.498Z,53.62
2024-03-02T23:00:32.214Z,53.22
2024-03-02T23:03:01.441Z,53.67
2024-03-02T23:05:29.194Z,54.90
2024-03-02T23:07:57.139Z,54.54
2024-03-02T23:10:24.831Z,54.81
2024-03-02T23:12:52.875Z,54.52
2024-03-02T23:15:20.503Z,53.58
2024-03-02T23:17:48.267Z,52.51
2024-03-02T23:20:17.477Z,52.26
2024-03-02T23:22:45.898Z,52.47
2024-03-02T23:25:13.596Z,51.81
2024-03-02T23:27:41.260Z,50.80
2024-03-02T23:30:10.882Z,50.80
2024-03-02T23:32:38.512Z,50.90
2024-03-02T23:35:06.494Z,50.86
2024-03-02T23:37:35.426Z,51.75
2024-03-02T23:40:34.211Z,50.89
2024-03-02T23:43:01.912Z,50.53
2024-03-02T23:45:29.545Z,50.68
2024-03-02T23:47:57.261Z,50.99
2024-03-02T23:50:25.074Z,51.64
2024-03-02T23:52:53.991Z,51.54
2024-03-02T23:55:22.962Z,52.59
2024-03-02T23:57:51.873Z,51.88
